This is the latest recevied weather packets stored in our database for station/object HA9OZD-18. If no packets are shown the sender has not sent any weather packets the latest 10 day(s).
| Time | Temp. | Humidity | Pressure | Rain* | Wind** | Luminosity | Snow |
|---|---|---|---|---|---|---|---|
| 1787741107 | 20° C | 46% | 1017.8 hPa | - | - | - | - |
| 1787737506 | 17.22° C | 54% | 1017.9 hPa | - | - | - | - |
| 1787733906 | 15.56° C | 59% | 1017.4 hPa | - | - | - | - |
| 1787730306 | 15° C | 60% | 1016.8 hPa | - | - | - | - |
| 1787726706 | 13.89° C | 63% | 1016.5 hPa | - | - | - | - |
| 1787723105 | 13.89° C | 66% | 1016.1 hPa | - | - | - | - |
| 1787719505 | 13.33° C | 63% | 1015.7 hPa | - | - | - | - |
| 1787715905 | 13.33° C | 65% | 1015.5 hPa | - | - | - | - |
| 1787712305 | 13.33° C | 66% | 1015.5 hPa | - | - | - | - |
| 1787708704 | 13.33° C | 66% | 1015.2 hPa | - | - | - | - |
| 1787706607 | 13.33° C | 64% | 1015.3 hPa | - | - | - | - |
| 1787705104 | 13.33° C | 64% | 1015.3 hPa | - | - | - | - |
| 1787701504 | 13.89° C | 62% | 1015.2 hPa | - | - | - | - |
| 1787697904 | 14.44° C | 60% | 1015.5 hPa | - | - | - | - |
| 1787694303 | 14.44° C | 60% | 1015.7 hPa | - | - | - | - |
| 1787691065 | 14.44° C | 60% | 1015.7 hPa | - | - | - | - |
| 1787690703 | 14.44° C | 60% | 1015.7 hPa | - | - | - | - |
| 1787687288 | 15° C | 58% | 1015.6 hPa | - | - | - | - |
| 1787687102 | 15° C | 58% | 1015.6 hPa | - | - | - | - |
| 1787683609 | 15° C | 57% | 1015.5 hPa | - | - | - | - |
| 1787683504 | 15° C | 57% | 1015.5 hPa | - | - | - | - |
| 1787679904 | 16.67° C | 47% | 1015 hPa | - | - | - | - |
| 1787676304 | 18.33° C | 40% | 1015 hPa | - | - | - | - |
| 1787672703 | 20° C | 37% | 1015.5 hPa | - | - | - | - |
| 1787669103 | 21.11° C | 34% | 1015.3 hPa | - | - | - | - |
* Rain since midnight (hover to see other rain measurements)
** Current wind speed in m/s (hover to see current wind gust speed)